Latest Weather Observations for Cape Sorell

IDT60801

Issued at 8:33 pm EDT Wednesday 1 April 2015 (issued every 30 minutes, with the page automatically refreshed every 10 minutes)

About weather observations | Map of weather stations | Latest weather observations for TAS | Other Formats
Station Details ID: 097000 Name: CAPE SORELL Lat: -42.20 Lon: 145.17 Height: 19.3 m
Data from the previous 72 hours. | See also: Recent months at Cape Sorell
Date/Time
EDT
Temp
°C
App
Temp
°C
Dew
Point
Rel
Hum
%
Delta-T
°C
Wind Press
QNH
hPa
Press
MSL
hPa
Rain
since 9 am
mm
Dir
 
Spd
km/h
Gust
km/h
Spd
kts
Gust
kts
01/08:30pm 15.8 11.5 15.3 97 0.3 NNE 32 37 17 20 1005.8 1005.8 1.6
01/08:00pm 15.7 12.0 15.1 96 0.3 NNE 28 32 15 17 1006.5 1006.5 1.6
01/07:30pm 15.7 10.5 14.6 93 0.6 N 35 41 19 22 1007.2 1007.2 1.4
01/07:00pm 15.9 11.3 13.4 85 1.4 N 30 37 16 20 1007.9 1007.9 1.0
01/06:30pm 16.3 11.1 12.8 80 1.9 NNW 32 41 17 22 1008.5 1008.5 0.4
01/06:00pm 17.4 12.0 12.9 75 2.5 NNW 33 41 18 22 1008.4 1008.4 0.0
01/05:30pm 18.1 12.3 12.8 71 3.0 NNW 35 43 19 23 1008.4 1008.4 0.0
01/05:00pm 18.9 11.8 12.2 65 3.7 NNW 41 52 22 28 1008.0 1008.0 0.0
01/04:30pm 19.9 12.9 12.4 62 4.2 NW 41 57 22 31 1007.7 1007.7 0.0
01/04:00pm 18.8 14.6 13.6 72 3.0 NNW 28 43 15 23 1007.7 1007.7 0.0
01/03:30pm 18.7 15.3 13.6 72 2.9 N 24 28 13 15 1007.5 1007.5 0.0
01/03:00pm 19.4 14.8 13.6 69 3.3 N 30 35 16 19 1008.3 1008.3 0.0
01/02:30pm 19.5 14.6 13.7 69 3.3 N 32 35 17 19 1008.6 1008.6 0.0
01/02:00pm 19.6 14.0 13.3 67 3.6 N 35 41 19 22 1009.0 1009.0 0.0
01/01:30pm 20.0 13.4 12.7 63 4.1 N 39 46 21 25 1009.6 1009.6 0.0
01/01:00pm 19.6 14.0 13.3 67 3.6 N 35 41 19 22 1010.0 1010.0 0.0
01/12:30pm 19.5 13.5 13.2 67 3.6 N 37 46 20 25 1010.3 1010.3 0.0
01/12:00pm 19.0 13.4 13.4 70 3.2 N 35 39 19 21 1010.9 1010.9 0.0
01/11:30am 18.9 12.7 12.6 67 3.5 NNE 37 44 20 24 1011.2 1011.2 0.0
01/11:00am 19.2 12.0 13.2 68 3.4 NNE 43 52 23 28 1011.3 1011.3 0.0
01/10:30am 18.1 11.6 12.8 71 3.0 NNE 39 46 21 25 1011.9 1011.9 0.0
01/10:00am 18.0 12.1 12.5 70 3.1 NNE 35 43 19 23 1012.3 1012.3 0.0
01/09:30am 17.8 12.3 12.5 71 2.9 NNE 33 41 18 22 1012.9 1012.9 0.0
01/09:00am 17.2 11.5 11.9 71 2.9 NNE 33 39 18 21 1013.0 1013.0 0.0
01/08:30am 16.8 11.0 11.5 71 2.9 NNE 33 39 18 21 1013.2 1013.2 0.0
01/08:00am 16.4 10.7 11.1 71 2.8 NNE 32 37 17 20 1013.2 1013.2 0.0
01/07:30am 16.3 10.3 10.8 70 2.9 NNE 33 39 18 21 1013.4 1013.4 0.0
01/07:00am 16.1 10.2 11.3 73 2.6 NNE 33 39 18 21 1013.5 1013.5 0.0
01/06:30am 15.7 10.2 11.7 77 2.2 NNE 32 37 17 20 1013.8 1013.8 0.0
01/06:00am 15.3 9.2 11.7 79 1.9 NNE 35 43 19 23 1014.3 1014.3 0.0
01/05:30am 15.1 9.4 11.9 81 1.7 NNE 33 39 18 21 1015.0 1015.0 0.0
01/05:00am 14.9 10.2 12.0 83 1.6 NNE 28 32 15 17 1015.4 1015.4 0.0
01/04:30am 14.9 10.6 12.2 84 1.5 NNE 26 32 14 17 1016.2 1016.1 0.0
01/04:00am 14.7 10.4 12.2 85 1.4 NNE 26 32 14 17 1016.6 1016.5 0.0
01/03:30am 14.5 9.9 12.2 86 1.2 NNE 28 33 15 18 1017.4 1017.3 0.0
01/03:00am 14.6 10.4 12.5 87 1.1 NNE 26 32 14 17 1018.1 1018.0 0.0
01/02:30am 14.3 10.5 12.3 88 1.1 NNE 24 28 13 15 1018.8 1018.7 0.0
01/02:00am 14.1 10.6 12.1 88 1.1 NNE 22 26 12 14 1019.3 1019.2 0.0
01/01:30am 14.1 10.5 11.8 86 1.2 NNE 22 28 12 15 1019.7 1019.6 0.0
01/01:00am 14.9 11.1 12.4 85 1.4 N 24 32 13 17 1020.2 1020.1 0.0
01/12:30am 14.5 10.1 11.8 84 1.5 N 26 32 14 17 1020.6 1020.5 0.0
01/12:00am 14.7 10.3 11.8 83 1.6 N 26 32 14 17 1020.8 1020.7 0.0
 
Date/Time
EDT
Temp
°C
App
Temp
°C
Dew
Point
Rel
Hum
%
Delta-T
°C
Wind Press
QNH
hPa
Press
MSL
hPa
Rain
since 9 am
mm
Dir
 
Spd
km/h
Gust
km/h
Spd
kts
Gust
kts
31/11:30pm 14.6 10.6 11.7 83 1.6 N 24 30 13 16 1021.2 1021.1 0.0
31/11:00pm 14.6 10.2 11.7 83 1.6 N 26 33 14 18 1021.3 1021.2 0.0
31/10:30pm 14.5 10.1 11.7 83 1.5 N 26 32 14 17 1021.7 1021.6 0.0
31/10:00pm 14.7 10.8 12.2 85 1.4 NNW 24 30 13 16 1022.3 1022.2 0.0
31/09:30pm 14.8 11.8 12.5 86 1.3 NNW 20 28 11 15 1022.3 1022.2 0.0
31/09:00pm 14.7 11.7 12.7 88 1.1 NNW 20 26 11 14 1022.5 1022.4 0.0
31/08:30pm 14.5 12.1 12.5 88 1.1 NW 17 20 9 11 1022.4 1022.3 0.0
31/08:00pm 14.3 11.9 12.5 89 1.0 NW 17 26 9 14 1022.4 1022.3 0.0
31/07:30pm 14.4 12.0 12.6 89 1.0 NW 17 20 9 11 1022.2 1022.1 0.0
31/07:00pm 14.5 12.1 12.5 88 1.1 NW 17 20 9 11 1022.2 1022.1 0.0
31/06:30pm 14.7 11.9 12.6 87 1.1 NW 19 24 10 13 1022.2 1022.1 0.0
31/06:00pm 15.1 12.4 12.8 86 1.3 NW 19 24 10 13 1022.1 1022.0 0.0
31/05:30pm 15.4 12.8 13.1 86 1.3 NW 19 26 10 14 1022.1 1022.0 0.0
31/05:00pm 15.7 13.9 13.2 85 1.4 NW 15 20 8 11 1022.2 1022.1 0.0
31/04:30pm 15.8 13.0 13.1 84 1.5 NW 20 26 11 14 1022.4 1022.3 0.0
31/04:00pm 16.9 15.1 14.4 85 1.4 NW 17 24 9 13 1022.8 1022.8 0.0
31/03:30pm 16.9 15.6 14.7 87 1.3 NW 15 20 8 11 1022.9 1022.9 0.0
31/03:00pm 16.5 14.9 15.0 91 0.9 NNW 17 20 9 11 1023.2 1023.2 0.0
31/02:30pm 15.7 13.8 15.1 96 0.3 NW 19 24 10 13 1023.5 1023.5 0.0
31/02:00pm 14.1 11.7 13.9 99 0.1 NNW 19 28 10 15 1023.8 1023.8 0.0
31/01:30pm 14.1 11.6 13.5 96 0.3 NNW 19 22 10 12 1024.2 1024.2 0.0
31/01:00pm 14.9 12.7 13.3 90 0.9 NW 17 22 9 12 1024.5 1024.5 0.0
31/12:30pm 15.4 13.2 14.4 94 0.6 NW 19 24 10 13 1024.8 1024.8 0.0
31/12:00pm 15.8 13.5 14.0 89 1.0 NW 19 26 10 14 1025.0 1025.0 0.0
31/11:30am 14.9 12.6 14.1 95 0.5 NW 19 24 10 13 1025.2 1025.2 0.0
31/11:00am 14.4 12.8 13.9 97 0.3 NW 15 20 8 11 1025.0 1025.0 0.0
31/10:30am 14.3 11.8 14.1 99 0.1 N 20 24 11 13 1025.0 1025.0 0.0
31/10:00am 14.1 11.2 13.9 99 0.1 N 22 32 12 17 1024.9 1024.9 0.0
31/09:30am 14.2 12.6 14.0 99 0.1 NNW 15 19 8 10 1024.7 1024.7 0.0
31/09:00am 14.1 12.1 13.9 99 0.1 NW 17 22 9 12 1024.7 1024.7 0.6
31/08:30am 13.5 11.3 13.3 99 0.1 NNW 17 22 9 12 1024.7 1024.7 0.4
31/08:00am 13.8 12.1 13.6 99 0.1 NNW 15 22 8 12 1024.4 1024.4 0.4
31/07:30am 14.2 11.3 13.9 98 0.2 NNW 22 28 12 15 1024.3 1024.3 0.0
31/07:00am 14.1 11.5 13.8 98 0.2 N 20 24 11 13 1024.0 1024.0 0.0
31/06:30am 13.6 10.6 12.5 93 0.6 N 20 24 11 13 1023.6 1023.6 0.0
31/06:00am 14.4 11.4 12.1 86 1.2 NNW 19 26 10 14 1023.7 1023.7 0.0
31/05:30am 14.6 12.0 11.9 84 1.5 N 17 26 9 14 1023.6 1023.6 0.0
31/05:00am 14.6 12.0 11.9 84 1.5 NNE 17 19 9 10 1023.4 1023.4 0.0
31/04:30am 14.5 11.5 12.0 85 1.4 N 19 24 10 13 1023.6 1023.6 0.0
31/04:00am 14.6 12.4 12.1 85 1.3 NNE 15 17 8 9 1023.6 1023.6 0.0
31/03:30am 14.6 12.5 12.3 86 1.3 N 15 17 8 9 1023.8 1023.8 0.0
31/03:00am 14.6 14.0 12.3 86 1.2 NW 7 11 4 6 1024.1 1024.1 0.0
31/02:30am 14.3 12.1 12.0 86 1.2 WNW 15 19 8 10 1024.2 1024.2 0.0
31/02:00am 14.4 12.1 11.7 84 1.4 W 15 19 8 10 1024.1 1024.1 0.0
31/01:30am 15.1 13.1 11.5 79 1.9 NNW 13 19 7 10 1024.0 1024.0 0.0
31/01:00am 15.0 12.5 11.2 78 2.0 NW 15 19 8 10 1024.0 1024.0 0.0
31/12:30am 14.9 13.2 11.1 78 2.0 NW 11 15 6 8 1024.1 1024.1 0.0
31/12:00am 14.7 12.5 10.9 78 2.0 NNW 13 19 7 10 1024.2 1024.2 0.0
 
Date/Time
EDT
Temp
°C
App
Temp
°C
Dew
Point
Rel
Hum
%
Delta-T
°C
Wind Press
QNH
hPa
Press
MSL
hPa
Rain
since 9 am
mm
Dir
 
Spd
km/h
Gust
km/h
Spd
kts
Gust
kts
30/11:30pm 14.7 11.5 11.1 79 1.9 NW 19 26 10 14 1024.3 1024.3 0.0
30/11:00pm 14.8 11.8 11.8 82 1.6 WNW 19 22 10 12 1024.3 1024.3 0.0
30/10:30pm 15.1 13.7 12.2 83 1.6 NNW 11 15 6 8 1024.3 1024.3 0.0
30/10:00pm 14.8 13.3 11.8 82 1.6 NNW 11 15 6 8 1024.3 1024.3 0.0
30/09:30pm 14.6 13.7 11.4 81 1.7 NW 7 11 4 6 1024.2 1024.2 0.0
30/09:00pm 14.7 14.0 11.5 81 1.7 WNW 6 11 3 6 1024.2 1024.2 0.0
30/08:30pm 14.8 13.6 11.6 81 1.7 NW 9 13 5 7 1024.1 1024.1 0.0
30/08:00pm 14.7 12.8 11.7 82 1.6 NW 13 17 7 9 1023.8 1023.8 0.0
30/07:30pm 14.6 12.7 11.7 83 1.6 WNW 13 15 7 8 1023.3 1023.3 0.0
30/07:00pm 14.9 12.6 11.9 82 1.6 NW 15 20 8 11 1023.1 1023.1 0.0
30/06:30pm 15.0 13.9 11.8 81 1.7 W 9 15 5 8 1022.7 1022.6 0.0
30/06:00pm 15.5 13.9 11.7 78 2.0 WNW 11 19 6 10 1022.4 1022.3 0.0
30/05:30pm 15.6 13.2 11.4 76 2.3 WNW 15 17 8 9 1022.2 1022.1 0.0
30/05:00pm 17.0 16.0 13.3 79 2.1 WNW 11 13 6 7 1022.0 1021.9 0.0
30/04:30pm 15.6 13.4 12.2 80 1.9 WNW 15 22 8 12 1022.1 1022.0 0.0
30/04:00pm 15.8 13.2 12.0 78 2.1 NW 17 22 9 12 1022.0 1021.9 0.0
30/03:30pm 16.7 14.6 12.5 76 2.3 NNW 15 22 8 12 1021.9 1021.8 0.0
30/03:00pm 16.7 14.2 12.3 75 2.4 NNW 17 22 9 12 1021.8 1021.7 0.0
30/02:30pm 16.6 15.8 12.9 79 2.1 NW 9 13 5 7 1021.6 1021.5 0.0
30/02:00pm 16.4 15.3 13.1 81 1.8 NW 11 15 6 8 1021.7 1021.6 0.0
30/01:30pm 16.0 14.6 13.5 85 1.4 WNW 13 20 7 11 1021.5 1021.4 0.0
30/01:00pm 16.5 14.5 14.0 85 1.4 WNW 17 22 9 12 1021.5 1021.4 0.0
30/12:30pm 16.9 16.3 15.6 92 0.8 WNW 13 17 7 9 1021.5 1021.4 0.0
30/12:00pm 15.6 14.8 15.1 97 0.3 WNW 13 17 7 9 1021.5 1021.4 0.0
30/11:30am 15.0 12.8 14.8 99 0.1 WNW 20 28 11 15 1021.4 1021.3 0.0
30/11:00am 15.7 14.4 15.7 100 0.0 NW 17 26 9 14 1021.5 1021.4 0.0
30/10:30am 15.3 14.2 15.3 100 0.0 NW 15 22 8 12 1021.2 1021.1 0.0
30/10:00am 14.8 13.9 14.8 100 0.0 N 13 17 7 9 1020.8 1020.7 0.0
30/09:30am 14.2 13.5 14.2 100 0.0 N 11 15 6 8 1020.3 1020.2 0.0
30/09:00am 13.7 13.7 13.5 99 0.1 NNW 6 9 3 5 1020.1 1020.0 1.4
30/08:30am 13.5 12.5 13.3 99 0.1 NW 11 20 6 11 1019.8 1019.7 1.4
30/08:00am 13.9 12.9 13.4 97 0.3 NW 11 20 6 11 1019.8 1019.7 1.2
30/07:30am 13.7 12.1 12.8 94 0.5 W 13 17 7 9 1019.6 1019.5 1.0
30/07:00am 14.0 12.0 12.6 91 0.8 NW 15 22 8 12 1019.4 1019.3 1.0
30/06:30am 15.2 13.9 13.7 91 0.8 NNW 13 17 7 9 1019.1 1019.0 1.0
30/06:00am 14.8 13.0 13.3 91 0.8 NW 15 17 8 9 1019.1 1019.0 1.0
30/05:30am 15.1 13.8 13.8 92 0.7 NW 13 17 7 9 1019.1 1019.0 1.0
30/05:00am 14.9 13.3 13.8 93 0.6 NW 15 19 8 10 1019.1 1019.0 1.0
30/04:30am 14.9 12.9 13.8 93 0.6 NW 17 24 9 13 1019.2 1019.1 1.0
30/04:00am 15.1 12.9 14.3 95 0.5 NW 19 28 10 15 1019.2 1019.1 1.0
30/03:30am 14.9 11.3 14.3 96 0.3 NW 26 33 14 18 1019.2 1019.1 1.0
30/03:00am 15.1 11.8 14.9 99 0.1 NNW 26 35 14 19 1019.2 1019.1 1.0
30/02:30am 15.1 11.4 15.1 100 0.0 NNW 28 35 15 19 1019.3 1019.2 1.0
30/02:00am 15.1 12.2 15.1 100 0.0 NNW 24 32 13 17 1019.1 1019.0 1.0
30/01:30am 15.1 13.5 15.1 100 0.0 NNW 17 22 9 12 1019.1 1019.0 1.0
30/01:00am 15.1 12.9 14.9 99 0.1 NNW 20 28 11 15 1019.1 1019.0 1.0
30/12:30am 15.1 13.0 15.1 100 0.0 NNW 20 28 11 15 1019.1 1019.0 1.0
30/12:00am 15.1 12.6 15.1 100 0.0 NNW 22 28 12 15 1019.1 1019.0 1.0
 
Date/Time
EDT
Temp
°C
App
Temp
°C
Dew
Point
Rel
Hum
%
Delta-T
°C
Wind Press
QNH
hPa
Press
MSL
hPa
Rain
since 9 am
mm
Dir
 
Spd
km/h
Gust
km/h
Spd
kts
Gust
kts
29/11:30pm 14.9 12.6 14.7 99 0.1 NNW 20 26 11 14 1019.2 1019.1 1.0
29/11:00pm 15.0 12.9 14.8 99 0.1 NNW 19 24 10 13 1019.3 1019.2 1.0
29/10:30pm 14.5 13.4 14.3 99 0.1 NW 13 17 7 9 1019.3 1019.2 1.0
29/10:00pm 14.4 12.9 14.2 99 0.1 NNW 15 17 8 9 1019.2 1019.1 1.0
29/09:30pm 14.2 13.4 13.9 98 0.2 NW 11 15 6 8 1019.1 1019.0 1.0
29/09:00pm 14.4 14.0 14.1 98 0.2 NW 9 13 5 7 1018.9 1018.8 1.0

Other Formats:

Comma delimited format used in spreadsheet applications
http://www.bom.gov.au/fwo/IDT60801/IDT60801.94974.axf

JavaScript Object Notation format (JSON) in row-major order
http://www.bom.gov.au/fwo/IDT60801/IDT60801.94974.json